sensor_id;sensor_type;location;lat;lon;timestamp;temperature;humidity
31129;DHT22;17777;48.770;8.944;2024-03-22T00:01:41;15.90;48.50
31129;DHT22;17777;48.770;8.944;2024-03-22T00:04:07;15.90;48.50
31129;DHT22;17777;48.770;8.944;2024-03-22T00:06:32;15.90;48.50
31129;DHT22;17777;48.770;8.944;2024-03-22T00:08:58;15.80;48.60
31129;DHT22;17777;48.770;8.944;2024-03-22T00:11:24;15.70;48.60
31129;DHT22;17777;48.770;8.944;2024-03-22T00:13:50;15.70;48.70
31129;DHT22;17777;48.770;8.944;2024-03-22T00:16:16;15.70;48.80
31129;DHT22;17777;48.770;8.944;2024-03-22T00:18:42;15.70;48.70
31129;DHT22;17777;48.770;8.944;2024-03-22T00:21:08;15.60;48.70
31129;DHT22;17777;48.770;8.944;2024-03-22T00:23:33;15.60;48.70
31129;DHT22;17777;48.770;8.944;2024-03-22T00:25:59;15.60;48.70
31129;DHT22;17777;48.770;8.944;2024-03-22T00:28:25;15.50;48.70
31129;DHT22;17777;48.770;8.944;2024-03-22T00:30:51;15.50;48.80
31129;DHT22;17777;48.770;8.944;2024-03-22T00:33:16;15.50;48.80
31129;DHT22;17777;48.770;8.944;2024-03-22T00:35:42;15.50;48.90
31129;DHT22;17777;48.770;8.944;2024-03-22T00:38:08;15.40;48.90
31129;DHT22;17777;48.770;8.944;2024-03-22T00:40:34;15.40;48.80
31129;DHT22;17777;48.770;8.944;2024-03-22T00:42:59;15.40;48.80
31129;DHT22;17777;48.770;8.944;2024-03-22T00:45:25;15.40;48.80
31129;DHT22;17777;48.770;8.944;2024-03-22T00:47:51;15.30;48.80
31129;DHT22;17777;48.770;8.944;2024-03-22T00:50:17;15.30;48.90
31129;DHT22;17777;48.770;8.944;2024-03-22T00:52:43;15.30;48.90
31129;DHT22;17777;48.770;8.944;2024-03-22T00:55:09;15.20;48.90
31129;DHT22;17777;48.770;8.944;2024-03-22T00:57:34;15.20;48.90
31129;DHT22;17777;48.770;8.944;2024-03-22T01:00:00;15.10;48.90
31129;DHT22;17777;48.770;8.944;2024-03-22T01:02:26;15.10;48.90
31129;DHT22;17777;48.770;8.944;2024-03-22T01:04:52;15.10;49.00
31129;DHT22;17777;48.770;8.944;2024-03-22T01:07:17;15.10;49.00
31129;DHT22;17777;48.770;8.944;2024-03-22T01:09:43;15.00;49.00
31129;DHT22;17777;48.770;8.944;2024-03-22T01:12:10;15.00;49.00
31129;DHT22;17777;48.770;8.944;2024-03-22T01:14:36;15.00;49.00
31129;DHT22;17777;48.770;8.944;2024-03-22T01:17:02;15.00;49.00
31129;DHT22;17777;48.770;8.944;2024-03-22T01:19:28;14.90;49.00
31129;DHT22;17777;48.770;8.944;2024-03-22T01:21:53;14.90;49.00
31129;DHT22;17777;48.770;8.944;2024-03-22T01:24:19;14.90;49.00
31129;DHT22;17777;48.770;8.944;2024-03-22T01:26:45;14.90;48.90
31129;DHT22;17777;48.770;8.944;2024-03-22T01:29:11;14.90;48.90
31129;DHT22;17777;48.770;8.944;2024-03-22T01:31:36;14.90;48.80
31129;DHT22;17777;48.770;8.944;2024-03-22T01:34:02;14.90;48.80
31129;DHT22;17777;48.770;8.944;2024-03-22T01:36:28;14.80;48.80
31129;DHT22;17777;48.770;8.944;2024-03-22T01:38:54;14.80;48.70
31129;DHT22;17777;48.770;8.944;2024-03-22T01:41:19;14.80;48.70
31129;DHT22;17777;48.770;8.944;2024-03-22T01:43:45;14.80;48.70
31129;DHT22;17777;48.770;8.944;2024-03-22T01:46:11;14.80;48.70
31129;DHT22;17777;48.770;8.944;2024-03-22T01:48:37;14.70;48.70
31129;DHT22;17777;48.770;8.944;2024-03-22T01:51:04;14.70;48.70
31129;DHT22;17777;48.770;8.944;2024-03-22T01:53:31;14.70;48.80
31129;DHT22;17777;48.770;8.944;2024-03-22T01:55:58;14.70;48.70
31129;DHT22;17777;48.770;8.944;2024-03-22T01:58:24;14.60;48.60
31129;DHT22;17777;48.770;8.944;2024-03-22T02:00:50;14.50;48.60
31129;DHT22;17777;48.770;8.944;2024-03-22T02:03:15;14.50;48.70
31129;DHT22;17777;48.770;8.944;2024-03-22T02:05:41;14.40;48.70
31129;DHT22;17777;48.770;8.944;2024-03-22T02:08:07;14.30;48.70
31129;DHT22;17777;48.770;8.944;2024-03-22T02:10:33;14.30;48.80
31129;DHT22;17777;48.770;8.944;2024-03-22T02:12:59;14.30;48.80
31129;DHT22;17777;48.770;8.944;2024-03-22T02:15:24;14.20;48.90
31129;DHT22;17777;48.770;8.944;2024-03-22T02:17:50;14.10;48.90
31129;DHT22;17777;48.770;8.944;2024-03-22T02:20:16;14.10;49.00
31129;DHT22;17777;48.770;8.944;2024-03-22T02:22:42;14.10;49.00
31129;DHT22;17777;48.770;8.944;2024-03-22T02:25:07;14.10;49.00
31129;DHT22;17777;48.770;8.944;2024-03-22T02:27:34;14.00;49.00
31129;DHT22;17777;48.770;8.944;2024-03-22T02:30:00;14.00;48.90
31129;DHT22;17777;48.770;8.944;2024-03-22T02:32:27;14.00;48.90
31129;DHT22;17777;48.770;8.944;2024-03-22T02:34:53;14.00;49.00
31129;DHT22;17777;48.770;8.944;2024-03-22T02:37:18;14.00;49.00
31129;DHT22;17777;48.770;8.944;2024-03-22T02:39:44;14.00;49.10
31129;DHT22;17777;48.770;8.944;2024-03-22T02:42:10;13.90;49.00
31129;DHT22;17777;48.770;8.944;2024-03-22T02:44:36;13.90;49.00
31129;DHT22;17777;48.770;8.944;2024-03-22T02:47:10;13.90;49.00
31129;DHT22;17777;48.770;8.944;2024-03-22T02:49:38;13.90;49.00
31129;DHT22;17777;48.770;8.944;2024-03-22T02:52:04;13.90;49.10
31129;DHT22;17777;48.770;8.944;2024-03-22T02:54:30;13.90;49.10
31129;DHT22;17777;48.770;8.944;2024-03-22T02:56:56;13.80;49.00
31129;DHT22;17777;48.770;8.944;2024-03-22T02:59:25;13.80;49.00
31129;DHT22;17777;48.770;8.944;2024-03-22T03:01:52;13.80;49.00
31129;DHT22;17777;48.770;8.944;2024-03-22T03:04:18;13.80;49.00
31129;DHT22;17777;48.770;8.944;2024-03-22T03:06:46;13.70;49.00
31129;DHT22;17777;48.770;8.944;2024-03-22T03:09:12;13.70;49.00
31129;DHT22;17777;48.770;8.944;2024-03-22T03:11:41;13.70;49.00
31129;DHT22;17777;48.770;8.944;2024-03-22T03:14:07;13.70;49.20
31129;DHT22;17777;48.770;8.944;2024-03-22T03:16:33;13.70;49.20
31129;DHT22;17777;48.770;8.944;2024-03-22T03:18:59;13.70;49.30
31129;DHT22;17777;48.770;8.944;2024-03-22T03:21:24;13.70;50.00
31129;DHT22;17777;48.770;8.944;2024-03-22T03:23:50;13.70;49.40
31129;DHT22;17777;48.770;8.944;2024-03-22T03:26:16;13.70;49.40
31129;DHT22;17777;48.770;8.944;2024-03-22T03:28:42;13.60;49.40
31129;DHT22;17777;48.770;8.944;2024-03-22T03:31:07;13.60;49.50
31129;DHT22;17777;48.770;8.944;2024-03-22T03:33:33;13.60;49.50
31129;DHT22;17777;48.770;8.944;2024-03-22T03:35:59;13.60;49.70
31129;DHT22;17777;48.770;8.944;2024-03-22T03:38:24;13.60;49.70
31129;DHT22;17777;48.770;8.944;2024-03-22T03:40:50;13.50;49.60
31129;DHT22;17777;48.770;8.944;2024-03-22T03:43:16;13.50;49.70
31129;DHT22;17777;48.770;8.944;2024-03-22T03:45:42;13.50;49.90
31129;DHT22;17777;48.770;8.944;2024-03-22T03:48:07;13.50;50.00
31129;DHT22;17777;48.770;8.944;2024-03-22T03:50:33;13.50;50.00
31129;DHT22;17777;48.770;8.944;2024-03-22T03:52:59;13.60;50.20
31129;DHT22;17777;48.770;8.944;2024-03-22T03:55:25;13.60;50.20
31129;DHT22;17777;48.770;8.944;2024-03-22T03:57:51;13.60;50.80
31129;DHT22;17777;48.770;8.944;2024-03-22T04:00:19;13.60;50.10
31129;DHT22;17777;48.770;8.944;2024-03-22T04:02:45;13.60;50.20
31129;DHT22;17777;48.770;8.944;2024-03-22T04:05:11;13.60;50.20
31129;DHT22;17777;48.770;8.944;2024-03-22T04:07:37;13.60;50.20
31129;DHT22;17777;48.770;8.944;2024-03-22T04:10:05;13.60;50.30
31129;DHT22;17777;48.770;8.944;2024-03-22T04:12:31;13.60;50.20
31129;DHT22;17777;48.770;8.944;2024-03-22T04:14:57;13.60;50.30
31129;DHT22;17777;48.770;8.944;2024-03-22T04:17:23;13.60;50.30
31129;DHT22;17777;48.770;8.944;2024-03-22T04:19:49;13.60;50.40
31129;DHT22;17777;48.770;8.944;2024-03-22T04:22:15;13.60;50.50
31129;DHT22;17777;48.770;8.944;2024-03-22T04:24:41;13.60;50.50
31129;DHT22;17777;48.770;8.944;2024-03-22T04:27:07;13.60;50.50
31129;DHT22;17777;48.770;8.944;2024-03-22T04:29:33;13.60;50.50
31129;DHT22;17777;48.770;8.944;2024-03-22T04:31:59;13.60;50.50
31129;DHT22;17777;48.770;8.944;2024-03-22T04:34:24;13.60;50.60
31129;DHT22;17777;48.770;8.944;2024-03-22T04:36:50;13.60;50.60
31129;DHT22;17777;48.770;8.944;2024-03-22T04:39:19;13.70;50.70
31129;DHT22;17777;48.770;8.944;2024-03-22T04:41:45;13.70;50.70
31129;DHT22;17777;48.770;8.944;2024-03-22T04:44:11;13.70;50.70
31129;DHT22;17777;48.770;8.944;2024-03-22T04:46:37;13.70;50.70
31129;DHT22;17777;48.770;8.944;2024-03-22T04:49:03;13.70;50.80
31129;DHT22;17777;48.770;8.944;2024-03-22T04:51:28;13.70;50.70
31129;DHT22;17777;48.770;8.944;2024-03-22T04:53:54;13.70;51.30
31129;DHT22;17777;48.770;8.944;2024-03-22T04:56:20;13.70;50.70
31129;DHT22;17777;48.770;8.944;2024-03-22T04:58:46;13.70;50.80
31129;DHT22;17777;48.770;8.944;2024-03-22T05:01:12;13.70;50.90
31129;DHT22;17777;48.770;8.944;2024-03-22T05:03:38;13.70;50.90
31129;DHT22;17777;48.770;8.944;2024-03-22T05:06:06;13.70;50.90
31129;DHT22;17777;48.770;8.944;2024-03-22T05:08:33;13.70;50.90
31129;DHT22;17777;48.770;8.944;2024-03-22T05:10:58;13.70;50.90
31129;DHT22;17777;48.770;8.944;2024-03-22T05:13:24;13.60;50.90
31129;DHT22;17777;48.770;8.944;2024-03-22T05:15:50;13.60;51.00
31129;DHT22;17777;48.770;8.944;2024-03-22T05:18:16;13.60;51.00
31129;DHT22;17777;48.770;8.944;2024-03-22T05:20:41;13.60;51.10
31129;DHT22;17777;48.770;8.944;2024-03-22T05:23:07;13.60;51.10
31129;DHT22;17777;48.770;8.944;2024-03-22T05:25:33;13.60;51.20
31129;DHT22;17777;48.770;8.944;2024-03-22T05:27:58;13.60;51.20
31129;DHT22;17777;48.770;8.944;2024-03-22T05:30:24;13.60;51.20
31129;DHT22;17777;48.770;8.944;2024-03-22T05:32:50;13.60;51.20
31129;DHT22;17777;48.770;8.944;2024-03-22T05:35:16;13.60;51.20
31129;DHT22;17777;48.770;8.944;2024-03-22T05:37:42;13.60;51.20
31129;DHT22;17777;48.770;8.944;2024-03-22T05:40:08;13.50;51.20
31129;DHT22;17777;48.770;8.944;2024-03-22T05:42:34;13.50;51.20
31129;DHT22;17777;48.770;8.944;2024-03-22T05:45:00;13.50;51.20
31129;DHT22;17777;48.770;8.944;2024-03-22T05:47:26;13.50;51.30
31129;DHT22;17777;48.770;8.944;2024-03-22T05:49:52;13.40;51.40
31129;DHT22;17777;48.770;8.944;2024-03-22T05:52:18;13.40;51.60
31129;DHT22;17777;48.770;8.944;2024-03-22T05:54:44;13.40;51.80
31129;DHT22;17777;48.770;8.944;2024-03-22T05:57:10;13.40;51.90
31129;DHT22;17777;48.770;8.944;2024-03-22T05:59:36;13.40;51.90
31129;DHT22;17777;48.770;8.944;2024-03-22T06:02:02;13.50;51.90
31129;DHT22;17777;48.770;8.944;2024-03-22T06:04:28;13.50;51.90
31129;DHT22;17777;48.770;8.944;2024-03-22T06:06:54;13.50;52.00
31129;DHT22;17777;48.770;8.944;2024-03-22T06:09:20;13.50;52.10
31129;DHT22;17777;48.770;8.944;2024-03-22T06:12:15;13.50;52.20
31129;DHT22;17777;48.770;8.944;2024-03-22T06:14:41;13.50;52.50
31129;DHT22;17777;48.770;8.944;2024-03-22T06:17:12;13.50;52.40
31129;DHT22;17777;48.770;8.944;2024-03-22T06:19:38;13.50;52.50
31129;DHT22;17777;48.770;8.944;2024-03-22T06:22:04;13.50;52.70
31129;DHT22;17777;48.770;8.944;2024-03-22T06:24:29;13.60;52.80
31129;DHT22;17777;48.770;8.944;2024-03-22T06:26:55;13.60;52.70
31129;DHT22;17777;48.770;8.944;2024-03-22T06:29:21;13.60;52.70
31129;DHT22;17777;48.770;8.944;2024-03-22T06:31:47;13.70;53.30
31129;DHT22;17777;48.770;8.944;2024-03-22T06:34:13;13.70;52.40
31129;DHT22;17777;48.770;8.944;2024-03-22T06:36:39;13.70;52.40
31129;DHT22;17777;48.770;8.944;2024-03-22T06:39:05;13.70;52.40
31129;DHT22;17777;48.770;8.944;2024-03-22T06:41:32;13.70;52.40
31129;DHT22;17777;48.770;8.944;2024-03-22T06:43:59;13.70;52.60
31129;DHT22;17777;48.770;8.944;2024-03-22T06:46:25;13.70;52.70
31129;DHT22;17777;48.770;8.944;2024-03-22T06:48:52;13.70;52.80
31129;DHT22;17777;48.770;8.944;2024-03-22T06:51:18;13.70;52.90
31129;DHT22;17777;48.770;8.944;2024-03-22T06:53:44;13.80;52.90
31129;DHT22;17777;48.770;8.944;2024-03-22T06:56:11;13.80;52.90
31129;DHT22;17777;48.770;8.944;2024-03-22T06:58:40;13.80;53.00
31129;DHT22;17777;48.770;8.944;2024-03-22T07:01:06;13.80;53.60
31129;DHT22;17777;48.770;8.944;2024-03-22T07:03:32;13.90;53.10
31129;DHT22;17777;48.770;8.944;2024-03-22T07:05:58;13.90;53.10
31129;DHT22;17777;48.770;8.944;2024-03-22T07:08:24;13.90;53.10
31129;DHT22;17777;48.770;8.944;2024-03-22T07:10:54;14.00;53.20
31129;DHT22;17777;48.770;8.944;2024-03-22T07:13:20;14.00;53.40
31129;DHT22;17777;48.770;8.944;2024-03-22T07:15:46;14.00;53.20
31129;DHT22;17777;48.770;8.944;2024-03-22T07:18:13;14.00;53.10
31129;DHT22;17777;48.770;8.944;2024-03-22T07:20:41;14.10;53.20
31129;DHT22;17777;48.770;8.944;2024-03-22T07:23:07;14.10;53.20
31129;DHT22;17777;48.770;8.944;2024-03-22T07:25:33;14.20;53.30
31129;DHT22;17777;48.770;8.944;2024-03-22T07:27:59;14.30;53.40
31129;DHT22;17777;48.770;8.944;2024-03-22T07:30:24;14.30;53.50
31129;DHT22;17777;48.770;8.944;2024-03-22T07:32:50;14.40;53.50
31129;DHT22;17777;48.770;8.944;2024-03-22T07:35:16;14.40;53.50
31129;DHT22;17777;48.770;8.944;2024-03-22T07:37:42;14.50;53.50
31129;DHT22;17777;48.770;8.944;2024-03-22T07:40:08;14.60;53.40
31129;DHT22;17777;48.770;8.944;2024-03-22T07:42:34;14.70;53.40
31129;DHT22;17777;48.770;8.944;2024-03-22T07:45:00;14.80;53.30
31129;DHT22;17777;48.770;8.944;2024-03-22T07:47:26;14.90;53.30
31129;DHT22;17777;48.770;8.944;2024-03-22T07:49:52;14.90;53.30
31129;DHT22;17777;48.770;8.944;2024-03-22T07:52:17;15.00;53.30
31129;DHT22;17777;48.770;8.944;2024-03-22T07:54:43;15.10;53.30
31129;DHT22;17777;48.770;8.944;2024-03-22T07:57:09;15.20;53.30
31129;DHT22;17777;48.770;8.944;2024-03-22T07:59:36;15.30;53.30
31129;DHT22;17777;48.770;8.944;2024-03-22T08:02:02;15.40;53.30
31129;DHT22;17777;48.770;8.944;2024-03-22T08:04:29;15.50;53.30
31129;DHT22;17777;48.770;8.944;2024-03-22T08:06:54;15.60;53.30
31129;DHT22;17777;48.770;8.944;2024-03-22T08:09:20;15.70;53.30
31129;DHT22;17777;48.770;8.944;2024-03-22T08:11:46;15.70;53.30
31129;DHT22;17777;48.770;8.944;2024-03-22T08:14:13;15.90;53.40
31129;DHT22;17777;48.770;8.944;2024-03-22T08:16:39;16.00;53.30
31129;DHT22;17777;48.770;8.944;2024-03-22T08:19:04;16.10;53.30
31129;DHT22;17777;48.770;8.944;2024-03-22T08:21:30;16.20;53.10
31129;DHT22;17777;48.770;8.944;2024-03-22T08:23:56;16.30;53.60
31129;DHT22;17777;48.770;8.944;2024-03-22T08:26:22;16.40;52.90
31129;DHT22;17777;48.770;8.944;2024-03-22T08:28:48;16.50;52.80
31129;DHT22;17777;48.770;8.944;2024-03-22T08:31:14;16.60;52.70
31129;DHT22;17777;48.770;8.944;2024-03-22T08:33:40;16.70;52.60
31129;DHT22;17777;48.770;8.944;2024-03-22T08:36:06;16.70;52.50
31129;DHT22;17777;48.770;8.944;2024-03-22T08:38:32;16.80;52.50
31129;DHT22;17777;48.770;8.944;2024-03-22T08:40:58;16.80;52.50
31129;DHT22;17777;48.770;8.944;2024-03-22T08:43:24;16.90;52.50
31129;DHT22;17777;48.770;8.944;2024-03-22T08:45:54;16.90;52.40
31129;DHT22;17777;48.770;8.944;2024-03-22T08:48:21;17.00;52.50
31129;DHT22;17777;48.770;8.944;2024-03-22T08:50:47;17.10;52.50
31129;DHT22;17777;48.770;8.944;2024-03-22T08:53:12;17.10;52.60
31129;DHT22;17777;48.770;8.944;2024-03-22T08:55:44;17.20;52.60
31129;DHT22;17777;48.770;8.944;2024-03-22T08:58:11;17.30;52.70
31129;DHT22;17777;48.770;8.944;2024-03-22T09:00:36;17.40;52.60
31129;DHT22;17777;48.770;8.944;2024-03-22T09:03:03;17.50;52.50
31129;DHT22;17777;48.770;8.944;2024-03-22T09:05:29;17.70;52.40
31129;DHT22;17777;48.770;8.944;2024-03-22T09:07:55;17.70;52.20
31129;DHT22;17777;48.770;8.944;2024-03-22T09:10:22;17.80;52.10
31129;DHT22;17777;48.770;8.944;2024-03-22T09:12:48;17.90;52.10
31129;DHT22;17777;48.770;8.944;2024-03-22T09:15:14;18.00;52.00
31129;DHT22;17777;48.770;8.944;2024-03-22T09:17:39;18.10;51.90
31129;DHT22;17777;48.770;8.944;2024-03-22T09:20:06;18.20;51.80
31129;DHT22;17777;48.770;8.944;2024-03-22T09:22:33;18.40;51.70
31129;DHT22;17777;48.770;8.944;2024-03-22T09:24:59;18.40;51.40
31129;DHT22;17777;48.770;8.944;2024-03-22T09:27:25;18.50;51.10
31129;DHT22;17777;48.770;8.944;2024-03-22T09:29:51;18.60;50.80
31129;DHT22;17777;48.770;8.944;2024-03-22T09:32:18;18.70;50.40
31129;DHT22;17777;48.770;8.944;2024-03-22T09:34:43;18.80;50.10
31129;DHT22;17777;48.770;8.944;2024-03-22T09:37:09;18.90;50.00
31129;DHT22;17777;48.770;8.944;2024-03-22T09:39:36;19.00;49.80
31129;DHT22;17777;48.770;8.944;2024-03-22T09:42:05;19.10;49.60
31129;DHT22;17777;48.770;8.944;2024-03-22T09:44:32;19.20;48.90
31129;DHT22;17777;48.770;8.944;2024-03-22T09:46:59;19.30;48.90
31129;DHT22;17777;48.770;8.944;2024-03-22T09:49:26;19.40;48.70
31129;DHT22;17777;48.770;8.944;2024-03-22T09:51:52;19.40;48.70
31129;DHT22;17777;48.770;8.944;2024-03-22T09:54:18;19.50;48.20
31129;DHT22;17777;48.770;8.944;2024-03-22T09:56:44;19.60;48.30
31129;DHT22;17777;48.770;8.944;2024-03-22T09:59:12;19.70;48.00
31129;DHT22;17777;48.770;8.944;2024-03-22T10:01:40;19.80;47.70
31129;DHT22;17777;48.770;8.944;2024-03-22T10:04:06;19.90;47.60
31129;DHT22;17777;48.770;8.944;2024-03-22T10:06:34;19.90;47.50
31129;DHT22;17777;48.770;8.944;2024-03-22T10:09:00;20.00;47.40
31129;DHT22;17777;48.770;8.944;2024-03-22T10:11:27;20.10;47.30
31129;DHT22;17777;48.770;8.944;2024-03-22T10:13:53;20.10;47.00
31129;DHT22;17777;48.770;8.944;2024-03-22T10:16:21;20.20;46.90
31129;DHT22;17777;48.770;8.944;2024-03-22T10:18:47;20.20;46.80
31129;DHT22;17777;48.770;8.944;2024-03-22T10:21:17;20.20;46.70
31129;DHT22;17777;48.770;8.944;2024-03-22T10:23:44;20.30;46.40
31129;DHT22;17777;48.770;8.944;2024-03-22T10:26:12;20.30;46.40
31129;DHT22;17777;48.770;8.944;2024-03-22T10:28:44;20.30;46.40
31129;DHT22;17777;48.770;8.944;2024-03-22T10:31:12;20.40;45.80
31129;DHT22;17777;48.770;8.944;2024-03-22T10:33:38;20.40;46.00
31129;DHT22;17777;48.770;8.944;2024-03-22T10:36:06;20.50;46.00
31129;DHT22;17777;48.770;8.944;2024-03-22T10:38:34;20.50;45.70
31129;DHT22;17777;48.770;8.944;2024-03-22T10:41:02;20.60;45.60
31129;DHT22;17777;48.770;8.944;2024-03-22T10:43:28;20.70;45.70
31129;DHT22;17777;48.770;8.944;2024-03-22T10:46:02;20.70;45.70
31129;DHT22;17777;48.770;8.944;2024-03-22T10:48:31;20.80;45.30
31129;DHT22;17777;48.770;8.944;2024-03-22T10:51:00;20.90;45.40
31129;DHT22;17777;48.770;8.944;2024-03-22T10:53:28;20.90;45.10
31129;DHT22;17777;48.770;8.944;2024-03-22T10:55:57;21.00;45.10
31129;DHT22;17777;48.770;8.944;2024-03-22T10:58:25;21.00;45.10
31129;DHT22;17777;48.770;8.944;2024-03-22T11:00:53;21.10;45.20
31129;DHT22;17777;48.770;8.944;2024-03-22T11:03:24;21.20;45.10
31129;DHT22;17777;48.770;8.944;2024-03-22T11:05:54;21.20;45.10
31129;DHT22;17777;48.770;8.944;2024-03-22T11:08:30;21.30;44.80
31129;DHT22;17777;48.770;8.944;2024-03-22T11:11:12;21.30;44.30
31129;DHT22;17777;48.770;8.944;2024-03-22T11:13:41;21.40;43.50
31129;DHT22;17777;48.770;8.944;2024-03-22T11:16:09;21.50;43.80
31129;DHT22;17777;48.770;8.944;2024-03-22T11:18:35;21.50;43.80
31129;DHT22;17777;48.770;8.944;2024-03-22T11:21:01;21.60;44.00
31129;DHT22;17777;48.770;8.944;2024-03-22T11:23:28;21.70;44.00
31129;DHT22;17777;48.770;8.944;2024-03-22T11:25:54;21.80;44.00
31129;DHT22;17777;48.770;8.944;2024-03-22T11:28:20;21.80;43.70
31129;DHT22;17777;48.770;8.944;2024-03-22T11:30:46;21.90;43.70
31129;DHT22;17777;48.770;8.944;2024-03-22T11:33:12;21.90;43.50
31129;DHT22;17777;48.770;8.944;2024-03-22T11:35:38;22.00;42.70
31129;DHT22;17777;48.770;8.944;2024-03-22T11:38:04;22.10;42.70
31129;DHT22;17777;48.770;8.944;2024-03-22T11:40:31;22.10;42.60
31129;DHT22;17777;48.770;8.944;2024-03-22T11:42:59;22.20;42.40
31129;DHT22;17777;48.770;8.944;2024-03-22T11:45:26;22.20;42.30
31129;DHT22;17777;48.770;8.944;2024-03-22T11:47:52;22.30;42.60
31129;DHT22;17777;48.770;8.944;2024-03-22T11:50:18;22.30;42.50
31129;DHT22;17777;48.770;8.944;2024-03-22T11:52:45;22.30;42.50
31129;DHT22;17777;48.770;8.944;2024-03-22T11:55:14;22.40;42.40
31129;DHT22;17777;48.770;8.944;2024-03-22T11:57:41;22.40;42.20
31129;DHT22;17777;48.770;8.944;2024-03-22T12:00:07;22.50;42.20
31129;DHT22;17777;48.770;8.944;2024-03-22T12:02:40;22.50;41.90
31129;DHT22;17777;48.770;8.944;2024-03-22T12:05:10;22.50;41.60
31129;DHT22;17777;48.770;8.944;2024-03-22T12:07:36;22.50;41.60
31129;DHT22;17777;48.770;8.944;2024-03-22T12:10:02;22.50;41.50
31129;DHT22;17777;48.770;8.944;2024-03-22T12:12:29;22.50;41.40
31129;DHT22;17777;48.770;8.944;2024-03-22T12:14:56;22.50;41.10
31129;DHT22;17777;48.770;8.944;2024-03-22T12:17:22;22.50;41.20
31129;DHT22;17777;48.770;8.944;2024-03-22T12:19:47;22.60;40.70
31129;DHT22;17777;48.770;8.944;2024-03-22T12:22:13;22.60;40.80
31129;DHT22;17777;48.770;8.944;2024-03-22T12:24:39;22.50;40.70
31129;DHT22;17777;48.770;8.944;2024-03-22T12:27:05;22.50;40.70
31129;DHT22;17777;48.770;8.944;2024-03-22T12:29:34;22.60;40.70
31129;DHT22;17777;48.770;8.944;2024-03-22T12:32:02;22.50;40.20
31129;DHT22;17777;48.770;8.944;2024-03-22T12:34:29;22.50;40.30
31129;DHT22;17777;48.770;8.944;2024-03-22T12:36:58;22.50;40.40
31129;DHT22;17777;48.770;8.944;2024-03-22T12:39:24;22.50;40.50
31129;DHT22;17777;48.770;8.944;2024-03-22T12:41:50;22.50;40.60
31129;DHT22;17777;48.770;8.944;2024-03-22T12:44:15;22.50;40.50
31129;DHT22;17777;48.770;8.944;2024-03-22T12:46:41;22.50;40.60
31129;DHT22;17777;48.770;8.944;2024-03-22T12:49:11;22.50;40.80
31129;DHT22;17777;48.770;8.944;2024-03-22T12:51:37;22.60;40.70
31129;DHT22;17777;48.770;8.944;2024-03-22T12:54:03;22.60;40.50
31129;DHT22;17777;48.770;8.944;2024-03-22T12:56:30;22.60;40.50
31129;DHT22;17777;48.770;8.944;2024-03-22T12:58:56;22.60;40.30
31129;DHT22;17777;48.770;8.944;2024-03-22T13:01:22;22.60;40.00
31129;DHT22;17777;48.770;8.944;2024-03-22T13:03:48;22.60;40.00
31129;DHT22;17777;48.770;8.944;2024-03-22T13:06:14;22.70;40.10
31129;DHT22;17777;48.770;8.944;2024-03-22T13:08:40;22.70;40.00
31129;DHT22;17777;48.770;8.944;2024-03-22T13:11:06;22.70;40.10
31129;DHT22;17777;48.770;8.944;2024-03-22T13:13:35;22.70;40.00
31129;DHT22;17777;48.770;8.944;2024-03-22T13:16:01;22.70;40.10
31129;DHT22;17777;48.770;8.944;2024-03-22T13:18:29;22.80;40.40
31129;DHT22;17777;48.770;8.944;2024-03-22T13:20:55;22.80;40.30
31129;DHT22;17777;48.770;8.944;2024-03-22T13:23:21;22.90;40.30
31129;DHT22;17777;48.770;8.944;2024-03-22T13:25:47;22.90;40.30
31129;DHT22;17777;48.770;8.944;2024-03-22T13:28:13;23.00;40.10
31129;DHT22;17777;48.770;8.944;2024-03-22T13:30:38;23.00;39.70
31129;DHT22;17777;48.770;8.944;2024-03-22T13:33:05;23.10;39.80
31129;DHT22;17777;48.770;8.944;2024-03-22T13:35:33;23.10;40.00
31129;DHT22;17777;48.770;8.944;2024-03-22T13:38:00;23.20;39.60
31129;DHT22;17777;48.770;8.944;2024-03-22T13:40:26;23.20;39.80
31129;DHT22;17777;48.770;8.944;2024-03-22T13:42:55;23.30;39.80
31129;DHT22;17777;48.770;8.944;2024-03-22T13:45:21;23.30;39.10
31129;DHT22;17777;48.770;8.944;2024-03-22T13:47:47;23.30;39.20
31129;DHT22;17777;48.770;8.944;2024-03-22T13:50:13;23.40;39.50
31129;DHT22;17777;48.770;8.944;2024-03-22T13:52:39;23.40;39.40
31129;DHT22;17777;48.770;8.944;2024-03-22T13:55:05;23.40;39.00
31129;DHT22;17777;48.770;8.944;2024-03-22T13:57:31;23.50;38.90
31129;DHT22;17777;48.770;8.944;2024-03-22T13:59:58;23.50;38.80
31129;DHT22;17777;48.770;8.944;2024-03-22T14:02:24;23.60;38.70
31129;DHT22;17777;48.770;8.944;2024-03-22T14:04:50;23.60;38.60
31129;DHT22;17777;48.770;8.944;2024-03-22T14:07:15;23.60;38.30
31129;DHT22;17777;48.770;8.944;2024-03-22T14:09:41;23.60;38.00
31129;DHT22;17777;48.770;8.944;2024-03-22T14:12:08;23.70;37.70
31129;DHT22;17777;48.770;8.944;2024-03-22T14:14:34;23.70;37.40
31129;DHT22;17777;48.770;8.944;2024-03-22T14:17:01;23.70;37.30
31129;DHT22;17777;48.770;8.944;2024-03-22T14:19:26;23.60;37.00
31129;DHT22;17777;48.770;8.944;2024-03-22T14:21:52;23.60;36.70
31129;DHT22;17777;48.770;8.944;2024-03-22T14:24:18;23.60;36.60
31129;DHT22;17777;48.770;8.944;2024-03-22T14:26:44;23.60;36.40
31129;DHT22;17777;48.770;8.944;2024-03-22T14:29:10;23.50;36.30
31129;DHT22;17777;48.770;8.944;2024-03-22T14:31:37;23.50;36.20
31129;DHT22;17777;48.770;8.944;2024-03-22T14:34:06;23.50;36.10
31129;DHT22;17777;48.770;8.944;2024-03-22T14:36:32;23.50;35.90
31129;DHT22;17777;48.770;8.944;2024-03-22T14:38:58;23.50;36.20
31129;DHT22;17777;48.770;8.944;2024-03-22T14:41:24;23.40;36.10
31129;DHT22;17777;48.770;8.944;2024-03-22T14:43:50;23.40;36.60
31129;DHT22;17777;48.770;8.944;2024-03-22T14:46:16;23.40;36.00
31129;DHT22;17777;48.770;8.944;2024-03-22T14:48:45;23.40;36.10
31129;DHT22;17777;48.770;8.944;2024-03-22T14:51:11;23.40;36.20
31129;DHT22;17777;48.770;8.944;2024-03-22T14:53:37;23.30;36.10
31129;DHT22;17777;48.770;8.944;2024-03-22T14:56:03;23.30;36.00
31129;DHT22;17777;48.770;8.944;2024-03-22T14:58:34;23.30;36.00
31129;DHT22;17777;48.770;8.944;2024-03-22T15:01:01;23.30;35.60
31129;DHT22;17777;48.770;8.944;2024-03-22T15:03:31;23.30;36.00
31129;DHT22;17777;48.770;8.944;2024-03-22T15:05:58;23.30;35.90
31129;DHT22;17777;48.770;8.944;2024-03-22T15:08:25;23.20;35.70
31129;DHT22;17777;48.770;8.944;2024-03-22T15:10:52;23.10;35.70
31129;DHT22;17777;48.770;8.944;2024-03-22T15:13:18;23.10;35.70
31129;DHT22;17777;48.770;8.944;2024-03-22T15:15:57;23.10;36.30
31129;DHT22;17777;48.770;8.944;2024-03-22T15:18:25;23.00;35.00
31129;DHT22;17777;48.770;8.944;2024-03-22T15:20:54;23.00;35.70
31129;DHT22;17777;48.770;8.944;2024-03-22T15:23:20;22.90;35.70
31129;DHT22;17777;48.770;8.944;2024-03-22T15:25:46;22.90;35.80